Time;durP1;ratioP1;P1;durP2;ratioP2;P2;SDS_P1;SDS_P2;PMS_P1;PMS_P2;Temp;Humidity;BMP_temperature;BMP_pressure;BME280_temperature;BME280_humidity;BME280_pressure;Samples;Min_cycle;Max_cycle;Signal;HPM_P1;HPM_P2
2021/12/19 00:00:18;;;;;;;7.60;1.73;;;20.60;63.80;;;;;;4498026;31;20603;-72
2021/12/19 00:11:03;;;;;;;5.38;1.58;;;20.50;63.80;;;;;;4495119;31;20117;-71
2021/12/19 00:13:29;;;;;;;3.80;1.40;;;20.50;63.80;;;;;;4495812;31;20148;-71
2021/12/19 00:15:56;;;;;;;5.03;1.98;;;20.40;63.80;;;;;;4494241;31;20190;-72
2021/12/19 00:18:22;;;;;;;5.03;1.50;;;20.40;63.70;;;;;;4494085;31;20137;-71
2021/12/19 00:20:48;;;;;;;6.70;1.77;;;20.40;63.60;;;;;;4494975;31;20537;-71
2021/12/19 00:23:15;;;;;;;5.60;1.60;;;20.40;63.60;;;;;;4493869;31;20136;-71
2021/12/19 00:25:41;;;;;;;6.00;1.50;;;20.40;63.50;;;;;;4495089;31;20144;-71
2021/12/19 00:28:07;;;;;;;6.20;1.50;;;20.40;63.60;;;;;;4480596;31;20243;-72
2021/12/19 00:30:34;;;;;;;5.70;1.27;;;20.40;63.60;;;;;;4481428;31;20143;-71
2021/12/19 00:33:00;;;;;;;4.25;1.20;;;20.40;63.60;;;;;;4493714;31;20152;-71
2021/12/19 00:35:27;;;;;;;4.47;1.55;;;20.30;63.50;;;;;;4494148;31;20132;-71
2021/12/19 00:37:53;;;;;;;4.60;1.80;;;20.30;63.60;;;;;;4494578;31;20183;-72
2021/12/19 00:40:20;;;;;;;4.20;1.30;;;20.30;63.60;;;;;;4494460;31;20144;-72
2021/12/19 00:43:01;;;;;;;3.08;1.40;;;20.30;63.70;;;;;;4494562;31;20136;-71
2021/12/19 00:45:32;;;;;;;5.05;1.48;;;20.30;63.70;;;;;;4493272;31;20255;-72
2021/12/19 00:47:59;;;;;;;5.32;1.45;;;20.20;63.60;;;;;;4495713;31;20135;-71
2021/12/19 00:50:26;;;;;;;5.78;1.83;;;20.20;63.60;;;;;;4494823;31;20226;-71
2021/12/19 00:52:52;;;;;;;7.03;1.50;;;20.20;63.80;;;;;;4495109;31;20253;-71
2021/12/19 00:55:20;;;;;;;4.45;1.38;;;20.20;63.80;;;;;;4482059;31;20147;-71
2021/12/19 00:57:47;;;;;;;3.28;1.17;;;20.20;63.70;;;;;;4494907;31;20180;-71
2021/12/19 01:00:18;;;;;;;3.40;1.45;;;20.20;63.70;;;;;;4481678;31;20133;-70
2021/12/19 01:02:44;;;;;;;3.97;1.35;;;20.20;63.70;;;;;;4493685;31;20171;-71
2021/12/19 01:05:10;;;;;;;6.03;1.42;;;20.20;63.80;;;;;;4494636;31;20258;-70
2021/12/19 01:07:36;;;;;;;3.83;1.23;;;20.10;63.80;;;;;;4494026;31;20270;-71
2021/12/19 01:10:08;;;;;;;5.82;1.92;;;20.10;63.80;;;;;;4481656;31;20144;-71
2021/12/19 01:12:38;;;;;;;4.10;1.40;;;20.20;63.80;;;;;;4481864;31;20129;-70
2021/12/19 01:15:10;;;;;;;3.85;1.45;;;20.10;63.70;;;;;;4493679;31;20678;-71
2021/12/19 01:17:37;;;;;;;3.08;1.30;;;20.10;63.70;;;;;;4495751;31;20128;-71
2021/12/19 01:20:12;;;;;;;4.90;1.13;;;20.10;63.70;;;;;;4480755;31;20178;-72
2021/12/19 01:22:38;;;;;;;4.72;1.08;;;20.10;63.70;;;;;;4495109;31;20143;-71
2021/12/19 01:25:05;;;;;;;2.70;1.10;;;20.10;63.80;;;;;;4494430;31;20493;-72
2021/12/19 01:27:31;;;;;;;5.10;1.38;;;20.10;63.80;;;;;;4494452;31;20132;-71
2021/12/19 01:29:57;;;;;;;2.33;1.00;;;20.10;63.70;;;;;;4494897;31;20124;-72
2021/12/19 01:32:23;;;;;;;3.50;1.13;;;20.00;63.80;;;;;;4493520;31;20576;-72
2021/12/19 01:34:48;;;;;;;2.65;1.00;;;20.00;63.80;;;;;;4495311;31;20301;-72
2021/12/19 01:37:14;;;;;;;4.47;1.20;;;20.10;63.70;;;;;;4494982;31;20205;-71
2021/12/19 01:39:41;;;;;;;3.15;1.13;;;20.00;63.70;;;;;;4494970;31;20132;-71
2021/12/19 01:42:10;;;;;;;3.55;1.10;;;20.00;64.00;;;;;;4468313;31;20140;-72
2021/12/19 01:44:36;;;;;;;3.33;0.93;;;20.00;63.80;;;;;;4494366;31;20144;-72
2021/12/19 01:47:03;;;;;;;2.15;1.05;;;20.00;63.80;;;;;;4481615;31;20270;-71
2021/12/19 01:49:30;;;;;;;1.42;0.80;;;20.00;63.80;;;;;;4493217;31;20282;-71
2021/12/19 01:51:56;;;;;;;3.28;1.05;;;20.00;63.90;;;;;;4494493;31;20727;-72
2021/12/19 01:54:23;;;;;;;3.25;1.05;;;20.00;63.90;;;;;;4494642;31;20144;-71
2021/12/19 01:56:49;;;;;;;2.90;1.08;;;20.00;63.90;;;;;;4493726;31;20121;-71
2021/12/19 01:59:15;;;;;;;2.72;0.93;;;19.90;63.80;;;;;;4494348;31;20125;-71
2021/12/19 02:01:47;;;;;;;3.25;1.00;;;19.90;63.90;;;;;;4493074;31;20246;-71
2021/12/19 02:04:15;;;;;;;3.22;1.10;;;19.90;63.90;;;;;;4494444;31;20155;-71
2021/12/19 02:06:42;;;;;;;2.13;0.80;;;19.90;63.90;;;;;;4492894;31;20136;-71
2021/12/19 02:09:09;;;;;;;2.35;0.82;;;19.90;63.90;;;;;;4494357;31;20151;-71
2021/12/19 02:11:37;;;;;;;2.03;0.80;;;19.90;64.80;;;;;;4494331;31;20141;-72
2021/12/19 02:14:03;;;;;;;2.90;1.10;;;19.80;63.80;;;;;;4493679;31;20596;-71
2021/12/19 02:16:30;;;;;;;1.75;0.90;;;19.90;63.90;;;;;;4480853;31;20202;-71
2021/12/19 02:18:57;;;;;;;3.30;1.20;;;19.80;63.90;;;;;;4492908;31;20191;-71
2021/12/19 02:21:23;;;;;;;2.92;1.00;;;19.80;63.90;;;;;;4481450;31;20166;-71
2021/12/19 02:23:49;;;;;;;2.95;0.90;;;19.80;63.90;;;;;;4494007;31;20140;-71
2021/12/19 02:26:17;;;;;;;2.42;0.70;;;19.80;63.90;;;;;;4495073;32;20124;-71
2021/12/19 02:28:43;;;;;;;2.20;1.00;;;19.80;63.90;;;;;;4494281;32;20239;-71
2021/12/19 02:31:09;;;;;;;3.95;0.93;;;19.80;63.90;;;;;;4494577;32;20255;-71
2021/12/19 02:33:40;;;;;;;3.75;1.00;;;19.80;63.80;;;;;;4493969;32;20533;-71
2021/12/19 02:49:30;;;;;;;3.22;0.70;;;19.70;63.80;;;;;;4494254;31;20128;-71
2021/12/19 02:51:56;;;;;;;5.63;1.02;;;19.70;63.80;;;;;;4493618;32;20159;-71
2021/12/19 02:54:23;;;;;;;1.70;0.80;;;19.70;63.80;;;;;;4494091;32;20130;-71
2021/12/19 02:56:50;;;;;;;1.77;0.90;;;19.70;63.70;;;;;;4493202;32;20146;-72
2021/12/19 02:59:16;;;;;;;2.13;0.80;;;19.70;63.80;;;;;;4480765;32;20132;-71
2021/12/19 03:01:44;;;;;;;1.77;0.70;;;19.70;63.80;;;;;;4493650;32;20151;-71
2021/12/19 03:04:11;;;;;;;2.53;0.82;;;19.70;63.70;;;;;;4495196;32;20259;-71
2021/12/19 03:06:43;;;;;;;2.05;0.70;;;19.70;63.80;;;;;;4492561;32;20270;-71
2021/12/19 03:09:10;;;;;;;1.58;0.60;;;19.60;63.70;;;;;;4493749;32;20141;-71
2021/12/19 03:12:07;;;;;;;1.33;0.70;;;19.70;63.70;;;;;;4494377;32;20128;-71
2021/12/19 03:19:53;;;;;;;1.52;0.52;;;19.60;63.80;;;;;;4493587;31;20242;-71
2021/12/19 03:22:19;;;;;;;2.97;1.00;;;19.60;63.70;;;;;;4493454;31;20141;-71
2021/12/19 03:24:45;;;;;;;2.58;0.60;;;19.60;63.60;;;;;;4495557;31;20113;-71
2021/12/19 03:27:12;;;;;;;1.75;0.43;;;19.60;63.70;;;;;;4482641;31;20151;-71
2021/12/19 03:29:38;;;;;;;1.63;0.60;;;19.60;63.70;;;;;;4497798;31;20137;-71
2021/12/19 03:32:04;;;;;;;2.67;0.75;;;19.60;63.80;;;;;;4469062;31;20152;-71
2021/12/19 03:34:30;;;;;;;1.70;0.60;;;19.50;63.70;;;;;;4483744;31;20319;-71
2021/12/19 03:36:56;;;;;;;1.30;0.60;;;19.60;63.80;;;;;;4469431;31;20605;-71
2021/12/19 03:39:36;;;;;;;2.00;0.70;;;19.60;63.80;;;;;;4495928;31;20121;-71
2021/12/19 03:42:02;;;;;;;1.48;0.57;;;19.60;63.70;;;;;;4484287;31;20142;-71
2021/12/19 03:44:28;;;;;;;2.05;0.80;;;19.60;63.70;;;;;;4495289;31;20392;-71
2021/12/19 03:46:54;;;;;;;1.52;0.60;;;19.60;63.70;;;;;;4483334;31;20113;-71
2021/12/19 03:49:20;;;;;;;1.88;0.90;;;19.50;63.70;;;;;;4494902;31;20109;-71
2021/12/19 03:51:48;;;;;;;1.70;0.60;;;19.50;63.70;;;;;;4496056;31;20140;-71
2021/12/19 03:54:14;;;;;;;1.50;0.50;;;19.50;63.70;;;;;;4495241;31;20132;-71
2021/12/19 03:56:41;;;;;;;3.03;0.52;;;19.50;63.60;;;;;;4500293;31;20144;-71
2021/12/19 03:59:06;;;;;;;1.20;0.57;;;19.50;63.60;;;;;;4496959;31;20124;-71
2021/12/19 04:01:32;;;;;;;1.30;0.60;;;19.50;63.70;;;;;;4495330;31;20210;-71
2021/12/19 04:03:59;;;;;;;1.65;0.57;;;19.50;63.70;;;;;;4495920;31;20124;-71
2021/12/19 04:06:25;;;;;;;1.83;0.65;;;19.50;63.60;;;;;;4494849;31;20129;-72
2021/12/19 04:08:51;;;;;;;2.67;0.70;;;19.50;63.70;;;;;;4483047;31;20542;-71
2021/12/19 04:11:18;;;;;;;1.50;0.60;;;19.40;63.50;;;;;;4495978;31;20601;-71
2021/12/19 04:13:44;;;;;;;3.15;0.80;;;19.50;63.60;;;;;;4495688;31;20120;-72
2021/12/19 04:16:09;;;;;;;2.60;0.80;;;19.50;63.60;;;;;;4481962;31;20412;-71
2021/12/19 04:18:35;;;;;;;1.35;0.47;;;19.50;63.60;;;;;;4495947;31;20113;-71
2021/12/19 04:21:01;;;;;;;2.53;0.63;;;19.40;63.50;;;;;;4482611;31;20140;-71
2021/12/19 04:23:30;;;;;;;2.38;0.80;;;19.40;63.50;;;;;;4494633;31;20137;-71
2021/12/19 04:25:57;;;;;;;1.95;0.50;;;19.40;63.60;;;;;;4496745;31;20242;-71
2021/12/19 04:28:24;;;;;;;1.58;0.50;;;19.40;63.60;;;;;;4494617;31;20179;-71
2021/12/19 04:30:50;;;;;;;1.30;0.50;;;19.40;63.60;;;;;;4496494;31;20321;-71
2021/12/19 04:33:16;;;;;;;3.33;0.90;;;19.40;63.60;;;;;;4494796;31;20196;-71
2021/12/19 04:35:45;;;;;;;1.40;0.50;;;19.40;64.00;;;;;;4493677;31;20151;-72
2021/12/19 04:59:24;;;;;;;1.38;0.80;;;19.30;63.60;;;;;;4495995;31;20140;-71
2021/12/19 05:02:13;;;;;;;1.08;0.77;;;19.30;63.60;;;;;;4494097;31;20186;-72
2021/12/19 05:15:31;;;;;;;1.60;0.50;;;19.20;63.50;;;;;;4494377;31;20164;-71
2021/12/19 05:18:02;;;;;;;1.90;0.70;;;19.30;63.60;;;;;;4494649;31;20159;-72
2021/12/19 05:20:29;;;;;;;1.65;0.68;;;19.20;63.60;;;;;;4495741;31;20139;-71
2021/12/19 05:23:05;;;;;;;2.20;0.70;;;19.30;63.60;;;;;;4494701;31;20137;-72
2021/12/19 05:25:31;;;;;;;1.92;0.70;;;19.20;63.50;;;;;;4496208;31;20231;-72
2021/12/19 05:27:58;;;;;;;2.00;0.70;;;19.20;63.50;;;;;;4480473;31;20274;-71
2021/12/19 05:30:25;;;;;;;1.80;0.57;;;19.20;63.60;;;;;;4481866;31;20121;-72
2021/12/19 05:32:54;;;;;;;2.05;0.90;;;19.20;63.60;;;;;;4495073;31;20540;-73
2021/12/19 05:35:31;;;;;;;2.13;0.63;;;19.20;63.60;;;;;;4493899;31;20117;-72
2021/12/19 05:46:11;;;;;;;1.63;0.80;;;19.20;63.60;;;;;;4494816;31;20625;-71
2021/12/19 05:48:37;;;;;;;1.45;0.70;;;19.20;63.60;;;;;;4494607;31;20142;-71
2021/12/19 05:51:04;;;;;;;2.22;0.85;;;19.10;63.60;;;;;;4495782;31;20136;-71
2021/12/19 05:53:30;;;;;;;1.83;0.88;;;19.20;63.60;;;;;;4480075;31;20121;-71
2021/12/19 05:55:57;;;;;;;1.77;0.68;;;19.10;63.50;;;;;;4495747;31;20201;-71
2021/12/19 05:58:23;;;;;;;2.55;0.80;;;19.20;63.60;;;;;;4493152;31;20217;-71
2021/12/19 06:00:49;;;;;;;1.13;0.68;;;19.10;63.60;;;;;;4494156;31;20312;-71
2021/12/19 06:03:15;;;;;;;2.63;0.73;;;19.10;63.60;;;;;;4493647;31;20113;-71
2021/12/19 06:05:41;;;;;;;1.92;0.88;;;19.10;63.50;;;;;;4494432;31;20151;-71
2021/12/19 06:08:07;;;;;;;1.38;0.65;;;19.10;63.60;;;;;;4495344;31;20129;-70
2021/12/19 06:10:32;;;;;;;1.80;0.88;;;19.10;63.60;;;;;;4493155;31;20120;-71
2021/12/19 06:12:59;;;;;;;1.25;0.80;;;19.10;63.60;;;;;;4495456;31;20185;-71
2021/12/19 06:15:25;;;;;;;2.03;0.95;;;19.10;63.60;;;;;;4479857;31;20376;-71
2021/12/19 06:17:52;;;;;;;1.85;0.80;;;19.10;63.60;;;;;;4495165;31;20180;-71
2021/12/19 06:20:19;;;;;;;2.15;0.70;;;19.10;63.60;;;;;;4494412;31;20574;-71
2021/12/19 06:22:45;;;;;;;2.35;0.73;;;19.10;63.60;;;;;;4480266;31;20182;-71
2021/12/19 06:25:11;;;;;;;1.70;0.80;;;19.10;63.60;;;;;;4494899;31;20140;-71
2021/12/19 06:27:39;;;;;;;2.00;0.60;;;19.00;63.60;;;;;;4493188;31;20194;-71
2021/12/19 06:30:06;;;;;;;2.95;0.73;;;19.00;63.60;;;;;;4494504;32;20132;-71
2021/12/19 06:32:33;;;;;;;3.10;0.70;;;19.00;63.60;;;;;;4494149;32;20136;-71
2021/12/19 06:35:05;;;;;;;2.25;0.85;;;19.00;63.60;;;;;;4495119;32;20117;-71
2021/12/19 06:37:35;;;;;;;2.00;0.77;;;19.00;63.70;;;;;;4494432;32;20143;-70
2021/12/19 06:40:03;;;;;;;1.13;0.68;;;19.00;63.60;;;;;;4493274;32;20302;-71
2021/12/19 06:42:29;;;;;;;1.65;0.70;;;19.00;63.70;;;;;;4494959;32;20341;-71
2021/12/19 06:44:54;;;;;;;1.23;0.70;;;19.00;63.60;;;;;;4493846;32;20133;-71
2021/12/19 06:47:20;;;;;;;1.65;0.82;;;19.00;63.70;;;;;;4494855;32;20109;-71
2021/12/19 06:49:46;;;;;;;2.65;0.75;;;19.00;63.60;;;;;;4493029;32;20136;-71
2021/12/19 06:52:13;;;;;;;1.67;0.73;;;19.00;63.70;;;;;;4480199;32;20290;-71
2021/12/19 06:54:39;;;;;;;1.80;0.75;;;19.00;63.70;;;;;;4493510;32;20128;-71
2021/12/19 06:57:05;;;;;;;2.30;0.63;;;19.00;63.60;;;;;;4493068;31;20182;-71
2021/12/19 06:59:30;;;;;;;1.15;0.70;;;18.90;63.60;;;;;;4495985;31;20156;-71
2021/12/19 07:01:56;;;;;;;3.50;1.00;;;19.00;63.70;;;;;;4482775;31;20186;-71
2021/12/19 07:04:22;;;;;;;1.98;0.60;;;19.00;63.70;;;;;;4497785;31;20777;-70
2021/12/19 07:06:48;;;;;;;1.58;0.80;;;18.90;63.70;;;;;;4495822;31;20184;-71
2021/12/19 07:09:14;;;;;;;1.50;0.77;;;18.90;63.70;;;;;;4496590;31;20473;-70
2021/12/19 07:11:40;;;;;;;2.35;0.60;;;18.90;63.70;;;;;;4496311;31;20475;-71
2021/12/19 07:14:06;;;;;;;1.77;0.60;;;18.90;63.70;;;;;;4495904;31;20144;-71
2021/12/19 07:16:32;;;;;;;2.65;0.70;;;18.90;63.70;;;;;;4496573;31;20130;-71
2021/12/19 07:18:57;;;;;;;2.15;0.93;;;18.90;63.70;;;;;;4482232;31;20147;-71
2021/12/19 07:21:25;;;;;;;2.92;1.02;;;18.90;63.70;;;;;;4483546;31;20121;-71
2021/12/19 07:23:51;;;;;;;2.30;0.82;;;18.90;63.70;;;;;;4495795;31;20140;-71
2021/12/19 07:26:17;;;;;;;1.70;0.80;;;18.90;63.70;;;;;;4496296;31;20493;-71
2021/12/19 07:28:46;;;;;;;1.90;0.70;;;18.90;63.80;;;;;;4495895;31;20136;-71
2021/12/19 07:31:11;;;;;;;1.70;0.63;;;18.90;63.80;;;;;;4469890;31;20116;-71
2021/12/19 07:33:43;;;;;;;2.50;0.80;;;18.90;63.80;;;;;;4496807;31;20785;-71
2021/12/19 07:36:09;;;;;;;2.90;0.80;;;18.90;63.80;;;;;;4496197;31;20302;-71
2021/12/19 07:38:47;;;;;;;1.85;0.85;;;18.90;63.80;;;;;;4483379;31;20134;-71
2021/12/19 07:41:13;;;;;;;1.88;0.88;;;18.80;63.70;;;;;;4483616;31;20132;-71
2021/12/19 07:43:39;;;;;;;1.83;0.82;;;18.80;63.70;;;;;;4496914;31;20190;-71
2021/12/19 07:46:05;;;;;;;1.30;0.60;;;18.90;63.80;;;;;;4482746;31;20139;-71
2021/12/19 07:48:31;;;;;;;2.10;0.75;;;18.80;63.70;;;;;;4495003;31;20144;-70
2021/12/19 07:50:57;;;;;;;1.20;0.55;;;18.80;63.70;;;;;;4497717;31;20222;-70
2021/12/19 07:53:24;;;;;;;2.03;0.73;;;18.80;63.70;;;;;;4495405;31;20631;-70
2021/12/19 07:55:50;;;;;;;1.35;0.70;;;18.80;63.80;;;;;;4496238;31;20121;-71
2021/12/19 07:58:16;;;;;;;2.50;0.85;;;18.80;63.70;;;;;;4496269;31;20142;-70
2021/12/19 08:00:42;;;;;;;1.48;0.75;;;18.80;63.70;;;;;;4495359;31;20128;-71
2021/12/19 08:03:08;;;;;;;1.73;0.60;;;18.80;63.80;;;;;;4495675;31;20155;-71
2021/12/19 08:05:34;;;;;;;1.33;0.68;;;18.80;63.70;;;;;;4494924;31;20120;-71
2021/12/19 08:08:02;;;;;;;1.88;0.75;;;18.80;63.80;;;;;;4483092;31;20142;-71
2021/12/19 08:12:59;;;;;;;1.90;0.80;;;18.70;63.80;;;;;;4497401;31;20141;-71
2021/12/19 08:15:25;;;;;;;2.75;0.90;;;18.70;63.80;;;;;;4495794;31;20245;-71
2021/12/19 08:17:51;;;;;;;2.45;0.70;;;18.80;63.80;;;;;;4495877;31;20163;-71
2021/12/19 08:20:17;;;;;;;1.85;0.95;;;18.70;63.80;;;;;;4496287;31;20627;-71
2021/12/19 08:22:44;;;;;;;2.70;0.90;;;18.70;63.80;;;;;;4494619;31;20158;-71
2021/12/19 08:25:10;;;;;;;1.85;0.50;;;18.70;63.90;;;;;;4495790;31;20194;-71
2021/12/19 08:27:37;;;;;;;2.47;0.80;;;18.70;63.80;;;;;;4494419;31;20208;-71
2021/12/19 08:30:10;;;;;;;1.48;0.68;;;18.70;63.80;;;;;;4496828;31;20306;-71
2021/12/19 08:32:37;;;;;;;2.17;0.93;;;18.70;63.80;;;;;;4495669;31;20151;-70
2021/12/19 08:35:06;;;;;;;2.15;0.68;;;18.70;63.80;;;;;;4482390;31;20151;-71
2021/12/19 08:37:33;;;;;;;1.83;0.88;;;18.70;63.80;;;;;;4496052;31;20274;-71
2021/12/19 08:39:59;;;;;;;2.10;0.77;;;18.70;63.80;;;;;;4495635;31;20489;-71
2021/12/19 08:42:25;;;;;;;4.25;0.90;;;18.70;64.00;;;;;;4495423;31;20104;-68
2021/12/19 08:44:51;;;;;;;4.00;1.23;;;18.60;63.90;;;;;;4494092;31;20128;-70
2021/12/19 08:47:16;;;;;;;4.53;1.50;;;18.70;63.50;;;;;;4495655;31;20136;-70
2021/12/19 08:49:43;;;;;;;4.43;1.35;;;18.70;63.00;;;;;;4480911;31;20124;-69
2021/12/19 08:52:11;;;;;;;7.57;1.50;;;18.70;63.40;;;;;;4481871;31;20491;-70
2021/12/19 08:54:37;;;;;;;6.88;1.42;;;18.70;62.10;;;;;;4494538;31;20636;-70
2021/12/19 08:57:03;;;;;;;3.85;1.40;;;18.60;62.40;;;;;;4481464;31;20221;-70
2021/12/19 08:59:29;;;;;;;5.88;1.50;;;18.60;62.70;;;;;;4495251;31;20124;-69
2021/12/19 09:02:01;;;;;;;4.95;1.50;;;18.60;62.80;;;;;;4494839;31;20186;-69
2021/12/19 09:04:29;;;;;;;8.23;1.83;;;18.60;62.90;;;;;;4496151;31;20258;-70
2021/12/19 09:06:58;;;;;;;7.15;1.45;;;18.60;62.90;;;;;;4494961;31;20132;-69
2021/12/19 09:09:24;;;;;;;9.52;1.85;;;18.60;62.90;;;;;;4495443;31;20301;-70
2021/12/19 09:11:52;;;;;;;5.97;1.63;;;18.60;62.90;;;;;;4495407;31;20117;-70
2021/12/19 09:14:18;;;;;;;7.32;1.50;;;18.60;62.80;;;;;;4493992;31;20145;-69
2021/12/19 09:16:44;;;;;;;7.38;1.80;;;18.60;62.90;;;;;;4495078;31;20711;-70
2021/12/19 09:19:10;;;;;;;4.28;1.38;;;18.60;62.90;;;;;;4493724;31;20121;-69
2021/12/19 09:21:36;;;;;;;5.10;1.35;;;18.70;62.80;;;;;;4481130;31;20178;-70
2021/12/19 09:24:03;;;;;;;6.30;1.52;;;18.70;62.80;;;;;;4494834;31;20572;-69
2021/12/19 09:26:29;;;;;;;6.90;1.65;;;18.80;63.60;;;;;;4494501;31;20551;-69
2021/12/19 09:28:55;;;;;;;7.50;1.30;;;18.80;62.40;;;;;;4495772;31;20124;-72
2021/12/19 09:31:23;;;;;;;4.03;1.25;;;18.90;62.20;;;;;;4494918;31;20251;-70
2021/12/19 09:33:50;;;;;;;5.53;1.45;;;19.10;62.00;;;;;;4481688;31;20247;-71
2021/12/19 09:36:17;;;;;;;4.35;1.23;;;19.20;61.80;;;;;;4493443;31;20214;-70
2021/12/19 09:38:48;;;;;;;6.03;1.52;;;19.20;61.60;;;;;;4494617;31;20146;-70
2021/12/19 09:41:27;;;;;;;5.10;1.23;;;19.40;61.50;;;;;;4494739;31;20636;-71
2021/12/19 09:43:56;;;;;;;4.82;1.38;;;19.50;61.20;;;;;;4493765;31;20174;-70
2021/12/19 09:46:22;;;;;;;4.30;1.10;;;19.60;60.90;;;;;;4494695;31;20120;-71
2021/12/19 09:48:48;;;;;;;4.25;1.15;;;19.70;60.60;;;;;;4493605;31;20187;-71
2021/12/19 09:51:17;;;;;;;4.82;1.13;;;19.80;60.40;;;;;;4496080;31;20617;-71
2021/12/19 09:53:43;;;;;;;3.40;1.10;;;19.90;60.20;;;;;;4494119;31;20190;-69
2021/12/19 09:56:13;;;;;;;4.07;1.52;;;20.10;60.00;;;;;;4495150;31;20128;-70
2021/12/19 09:58:40;;;;;;;2.97;0.88;;;20.20;59.70;;;;;;4493582;31;20633;-71
2021/12/19 10:01:10;;;;;;;3.65;1.10;;;20.30;59.50;;;;;;4509583;31;20150;-71
2021/12/19 10:03:37;;;;;;;5.95;1.35;;;20.40;59.30;;;;;;4502131;31;20203;-70
2021/12/19 10:06:16;;;;;;;3.42;1.05;;;20.50;59.00;;;;;;4493054;31;20233;-70
2021/12/19 10:08:42;;;;;;;5.72;1.17;;;20.60;58.80;;;;;;4494263;31;20597;-69
2021/12/19 10:11:33;;;;;;;5.25;1.10;;;20.70;58.40;;;;;;4493742;31;20147;-70
2021/12/19 10:14:00;;;;;;;3.53;1.00;;;20.90;58.30;;;;;;4494594;31;20120;-70
2021/12/19 10:16:29;;;;;;;3.58;1.20;;;21.00;58.00;;;;;;4494200;31;20135;-70
2021/12/19 10:19:03;;;;;;;4.20;1.23;;;21.00;57.50;;;;;;4494315;31;20740;-70
2021/12/19 10:21:35;;;;;;;5.70;1.60;;;21.10;56.90;;;;;;4494300;31;20251;-69
2021/12/19 10:24:03;;;;;;;4.97;1.58;;;21.10;56.60;;;;;;4494003;31;20143;-71
2021/12/19 10:26:44;;;;;;;4.40;1.48;;;21.20;56.50;;;;;;4480777;31;20874;-70
2021/12/19 10:29:11;;;;;;;6.30;1.30;;;21.20;56.60;;;;;;4494947;31;20129;-70
2021/12/19 10:31:37;;;;;;;6.18;1.40;;;21.10;56.60;;;;;;4479999;32;20101;-72
2021/12/19 10:34:18;;;;;;;6.38;1.85;;;21.10;56.70;;;;;;4497619;31;20172;-68
2021/12/19 10:36:45;;;;;;;9.02;1.67;;;21.10;56.70;;;;;;4496032;31;20120;-66
2021/12/19 10:39:16;;;;;;;6.75;1.85;;;21.00;56.40;;;;;;4484112;31;20509;-69
2021/12/19 10:41:43;;;;;;;5.90;1.90;;;20.90;56.20;;;;;;4497373;31;20151;-71
2021/12/19 10:47:26;;;;;;;11.43;2.38;;;20.70;56.00;;;;;;4462372;31;20147;-70
2021/12/19 10:49:53;;;;;;;8.82;1.83;;;20.50;55.90;;;;;;4496655;31;20159;-71
2021/12/19 10:52:33;;;;;;;7.53;1.90;;;20.50;56.10;;;;;;4497098;31;20148;-71
2021/12/19 10:55:04;;;;;;;11.63;2.67;;;20.40;56.00;;;;;;4497280;31;20210;-72
2021/12/19 10:57:33;;;;;;;7.88;2.17;;;20.30;56.10;;;;;;4498609;31;20128;-72
2021/12/19 10:59:59;;;;;;;11.23;1.80;;;20.20;56.30;;;;;;4496556;31;20144;-70
2021/12/19 11:02:36;;;;;;;7.18;1.75;;;20.20;56.50;;;;;;4496877;31;20202;-70
2021/12/19 11:05:05;;;;;;;6.00;1.63;;;20.20;56.90;;;;;;4496690;31;20128;-72
2021/12/19 11:07:32;;;;;;;7.15;2.08;;;20.10;57.20;;;;;;4497681;31;20187;-71
2021/12/19 11:09:58;;;;;;;6.40;1.70;;;20.10;57.40;;;;;;4482555;31;20254;-69
2021/12/19 11:12:24;;;;;;;10.60;1.98;;;20.00;57.50;;;;;;4499586;31;20582;-72
2021/12/19 11:14:51;;;;;;;6.07;1.55;;;20.10;57.70;;;;;;4494778;31;20313;-73
2021/12/19 11:17:23;;;;;;;7.60;1.88;;;20.10;57.90;;;;;;4483409;31;20136;-72
2021/12/19 11:19:51;;;;;;;8.48;2.30;;;20.10;57.90;;;;;;4507898;31;20137;-69
2021/12/19 11:22:25;;;;;;;9.63;1.85;;;20.10;57.90;;;;;;4496977;31;20139;-71
2021/12/19 11:24:56;;;;;;;5.53;1.60;;;20.20;57.80;;;;;;4509276;31;20268;-74
2021/12/19 11:27:22;;;;;;;6.97;1.77;;;20.30;57.80;;;;;;4495440;31;20142;-72
2021/12/19 11:29:54;;;;;;;8.48;1.70;;;20.30;57.70;;;;;;4497608;31;20254;-72
2021/12/19 11:32:23;;;;;;;6.95;1.73;;;20.40;57.70;;;;;;4495385;31;20140;-68
2021/12/19 11:35:03;;;;;;;9.13;1.95;;;20.50;57.60;;;;;;4495673;31;20143;-70
2021/12/19 11:37:35;;;;;;;5.85;1.63;;;20.60;57.60;;;;;;4496821;31;20195;-69
2021/12/19 11:40:06;;;;;;;4.45;1.25;;;20.60;57.50;;;;;;4508762;31;20132;-70
2021/12/19 11:42:35;;;;;;;4.03;1.48;;;20.60;57.40;;;;;;4512736;31;20132;-70
2021/12/19 11:48:04;;;;;;;;;;;20.70;57.40;;;;;;4512897;31;20139;-71
2021/12/19 11:50:33;;;;;;;5.28;1.50;;;20.70;57.50;;;;;;4512105;31;20032;-70
2021/12/19 11:53:25;;;;;;;5.78;1.38;;;20.70;57.50;;;;;;4510854;31;20592;-70
2021/12/19 11:56:11;;;;;;;7.40;1.77;;;20.70;57.60;;;;;;4512158;31;20163;-70
2021/12/19 11:58:36;;;;;;;7.18;1.38;;;20.80;57.60;;;;;;4511289;31;20151;-69
2021/12/19 12:01:09;;;;;;;5.95;1.35;;;20.80;57.60;;;;;;4511095;31;20129;-70
2021/12/19 12:03:53;;;;;;;5.07;1.65;;;20.80;57.60;;;;;;4512079;31;20154;-70
2021/12/19 12:06:22;;;;;;;6.05;1.58;;;20.80;57.70;;;;;;4509712;31;20172;-71
2021/12/19 12:09:06;;;;;;;6.55;1.45;;;20.80;57.70;;;;;;4495657;31;20262;-69
2021/12/19 12:11:33;;;;;;;5.10;1.40;;;20.80;57.80;;;;;;4495894;31;20136;-70
2021/12/19 12:14:29;;;;;;;3.67;1.45;;;20.80;57.80;;;;;;4495402;31;20160;-70
2021/12/19 12:17:02;;;;;;;5.10;1.40;;;20.80;57.90;;;;;;4496567;31;20214;-70
2021/12/19 12:19:43;;;;;;;4.93;1.40;;;20.80;57.90;;;;;;4494268;31;20590;-70
2021/12/19 12:22:25;;;;;;;6.78;1.75;;;20.80;57.90;;;;;;4478932;31;26550;-73
2021/12/19 12:25:03;;;;;;;5.78;1.98;;;20.80;57.90;;;;;;4496938;31;20213;-73
2021/12/19 12:27:44;;;;;;;8.90;1.63;;;20.80;58.00;;;;;;4500554;31;20143;-72
2021/12/19 12:30:35;;;;;;;4.60;1.30;;;20.90;58.10;;;;;;4504317;31;20136;-74
2021/12/19 12:33:04;;;;;;;4.05;1.33;;;20.80;58.10;;;;;;4495319;31;20148;-73
2021/12/19 12:35:32;;;;;;;5.00;1.48;;;20.80;58.10;;;;;;4495422;31;20144;-73
2021/12/19 12:38:00;;;;;;;3.78;1.45;;;20.80;58.10;;;;;;4495050;31;20132;-72
2021/12/19 12:40:48;;;;;;;5.53;1.52;;;20.80;58.10;;;;;;4493832;31;20155;-69
2021/12/19 12:43:24;;;;;;;4.90;1.45;;;20.80;58.00;;;;;;4495051;31;20443;-71
2021/12/19 12:46:07;;;;;;;6.45;1.83;;;20.70;58.10;;;;;;4494442;31;20140;-72
2021/12/19 12:48:37;;;;;;;5.45;1.73;;;20.70;58.20;;;;;;4495113;31;20194;-72
2021/12/19 12:51:07;;;;;;;5.47;1.30;;;20.70;58.30;;;;;;4496321;31;20129;-71
2021/12/19 12:53:37;;;;;;;6.80;1.83;;;20.70;58.30;;;;;;4494275;31;20142;-71
2021/12/19 12:56:13;;;;;;;4.75;1.40;;;20.70;58.40;;;;;;4494870;31;20310;-71
2021/12/19 12:58:55;;;;;;;7.15;1.63;;;20.80;58.40;;;;;;4495654;31;20136;-73
2021/12/19 13:01:40;;;;;;;6.20;1.50;;;20.80;58.50;;;;;;4494730;31;20140;-73
2021/12/19 13:04:08;;;;;;;6.55;1.55;;;20.80;58.30;;;;;;4493269;31;20190;-69
2021/12/19 13:07:04;;;;;;;7.25;1.60;;;20.70;58.10;;;;;;4494867;31;20186;-71
2021/12/19 13:09:42;;;;;;;5.88;1.45;;;20.80;58.00;;;;;;4494812;31;20128;-71
2021/12/19 13:12:12;;;;;;;6.63;1.92;;;20.70;57.60;;;;;;4494886;31;20183;-69
2021/12/19 13:14:45;;;;;;;9.43;2.30;;;20.70;57.50;;;;;;4492665;31;20140;-71
2021/12/19 13:17:17;;;;;;;9.13;2.00;;;20.70;57.20;;;;;;4495474;31;20133;-71
2021/12/19 13:19:52;;;;;;;8.75;1.95;;;20.70;57.00;;;;;;4494534;31;20153;-69
2021/12/19 13:22:33;;;;;;;9.07;2.40;;;20.80;56.80;;;;;;4482410;31;26610;-70
2021/12/19 13:25:23;;;;;;;9.43;2.00;;;20.70;56.50;;;;;;4504384;31;20148;-72
2021/12/19 13:28:20;;;;;;;9.40;1.83;;;20.70;56.30;;;;;;4494500;31;20132;-74
2021/12/19 13:30:46;;;;;;;6.22;1.67;;;20.80;56.20;;;;;;4494479;31;20266;-73
2021/12/19 13:33:16;;;;;;;7.10;2.00;;;20.80;55.90;;;;;;4493070;31;20148;-71
2021/12/19 13:35:48;;;;;;;8.93;2.40;;;20.80;55.60;;;;;;4493691;31;20124;-71
2021/12/19 13:38:27;;;;;;;7.10;2.00;;;20.80;55.50;;;;;;4493883;31;20124;-72
2021/12/19 13:41:05;;;;;;;6.95;2.08;;;20.80;55.50;;;;;;4493767;31;20143;-72
2021/12/19 13:43:34;;;;;;;6.43;1.70;;;20.80;55.60;;;;;;4494069;31;20337;-71
2021/12/19 13:46:21;;;;;;;8.10;2.08;;;20.80;55.60;;;;;;4493300;31;20128;-71
2021/12/19 13:48:52;;;;;;;8.88;2.30;;;20.80;55.70;;;;;;4492842;31;20221;-72
2021/12/19 13:51:22;;;;;;;6.55;1.70;;;20.80;55.80;;;;;;4493004;31;20120;-71
2021/12/19 13:53:53;;;;;;;8.27;2.10;;;20.90;56.00;;;;;;4492736;31;20140;-71
2021/12/19 13:56:30;;;;;;;6.95;1.73;;;20.90;56.10;;;;;;4493562;31;20145;-72
2021/12/19 13:59:00;;;;;;;12.30;2.15;;;20.90;56.20;;;;;;4504954;31;20233;-71
2021/12/19 14:01:29;;;;;;;6.22;1.50;;;20.90;56.30;;;;;;4492749;31;20413;-71
2021/12/19 14:03:59;;;;;;;9.75;1.92;;;20.90;56.40;;;;;;4491565;31;20179;-70
2021/12/19 14:06:31;;;;;;;4.35;1.55;;;20.90;56.60;;;;;;4493873;31;20751;-71
2021/12/19 14:09:00;;;;;;;5.25;1.67;;;20.90;56.60;;;;;;4494648;31;20241;-71
2021/12/19 14:11:30;;;;;;;7.53;1.88;;;20.90;56.60;;;;;;4493816;31;20265;-70
2021/12/19 14:14:05;;;;;;;4.13;1.42;;;20.90;56.60;;;;;;4494171;31;20775;-71